createdAt,value
2023-03-14T00:00:23.275Z,95699.88
2023-03-14T00:03:24.958Z,95710.38
2023-03-14T00:06:27.068Z,95729.56
2023-03-14T00:09:30.677Z,95728.03
2023-03-14T00:12:33.156Z,95759.72
2023-03-14T00:15:35.765Z,95752.53
2023-03-14T00:18:37.888Z,95771.56
2023-03-14T00:21:39.380Z,95780.56
2023-03-14T00:24:40.833Z,95786.38
2023-03-14T00:27:42.330Z,95797.09
2023-03-14T00:30:43.768Z,95781.59
2023-03-14T00:33:46.201Z,95767.19
2023-03-14T00:36:47.696Z,95782.16
2023-03-14T00:39:49.143Z,95766.88
2023-03-14T00:42:50.718Z,95764.59
2023-03-14T00:45:53.230Z,95770.50
2023-03-14T00:48:54.748Z,95764.53
2023-03-14T00:51:56.284Z,95750.25
2023-03-14T00:54:57.786Z,95746.75
2023-03-14T00:57:59.790Z,95746.28
2023-03-14T01:01:17.406Z,95741.09
2023-03-14T01:04:18.929Z,95722.44
2023-03-14T01:07:20.380Z,95707.19
2023-03-14T01:10:22.080Z,95706.69
2023-03-14T01:13:23.531Z,95717.59
2023-03-14T01:16:27.363Z,95706.16
2023-03-14T01:19:29.605Z,95731.84
2023-03-14T01:22:31.578Z,95735.63
2023-03-14T01:25:33.100Z,95750.28
2023-03-14T01:28:34.870Z,95746.81
2023-03-14T01:31:36.815Z,95743.31
2023-03-14T01:34:38.461Z,95745.59
2023-03-14T01:37:40.067Z,95744.31
2023-03-14T01:40:46.308Z,95756.41
2023-03-14T01:43:49.499Z,95742.34
2023-03-14T01:46:50.936Z,95745.13
2023-03-14T01:50:13.295Z,95763.84
2023-03-14T01:53:16.513Z,95757.59
2023-03-14T01:56:19.280Z,95747.22
2023-03-14T01:59:21.921Z,95731.38
2023-03-14T02:02:27.121Z,95730.31
2023-03-14T02:05:33.564Z,95726.03
2023-03-14T02:08:44.878Z,95724.28
2023-03-14T02:11:52.570Z,95723.13
2023-03-14T02:15:12.581Z,95721.72
2023-03-14T02:18:35.459Z,95705.25
2023-03-14T02:22:01.705Z,95703.91
2023-03-14T02:25:11.981Z,95702.47
2023-03-14T02:28:14.290Z,95683.72
2023-03-14T02:31:17.336Z,95669.13
2023-03-14T02:34:18.866Z,95667.59
2023-03-14T02:37:24.141Z,95643.56
2023-03-14T02:40:25.681Z,95645.13
2023-03-14T02:43:28.641Z,95637.22
2023-03-14T02:46:35.366Z,95632.47
2023-03-14T02:49:37.605Z,95633.84
2023-03-14T02:52:39.766Z,95616.25
2023-03-14T02:55:46.052Z,95626.53
2023-03-14T02:58:47.870Z,95630.88
2023-03-14T03:02:03.376Z,95613.78
2023-03-14T03:05:06.983Z,95600.22
2023-03-14T03:08:09.049Z,95597.72
2023-03-14T03:11:11.130Z,95605.91
2023-03-14T03:14:12.748Z,95594.50
2023-03-14T03:17:14.341Z,95594.25
2023-03-14T03:20:16.113Z,95576.25
2023-03-14T03:23:17.626Z,95582.75
2023-03-14T03:26:19.141Z,95583.28
2023-03-14T03:29:20.672Z,95572.59
2023-03-14T03:32:22.351Z,95580.63
2023-03-14T03:35:25.074Z,95576.28
2023-03-14T03:38:29.465Z,95572.31
2023-03-14T03:41:32.450Z,95560.47
2023-03-14T03:44:34.602Z,95556.44
2023-03-14T03:47:36.673Z,95547.16
2023-03-14T03:50:38.448Z,95544.81
2023-03-14T03:53:40.111Z,95531.91
2023-03-14T03:56:45.258Z,95533.81
2023-03-14T03:59:46.811Z,95508.50
2023-03-14T04:02:48.716Z,95536.78
2023-03-14T04:06:03.078Z,95535.19
2023-03-14T04:09:06.113Z,95524.53
2023-03-14T04:12:20.311Z,95532.56
2023-03-14T04:15:35.043Z,95528.75
2023-03-14T04:18:43.201Z,95524.72
2023-03-14T04:21:48.003Z,95509.81
2023-03-14T04:24:49.682Z,95492.53
2023-03-14T04:27:53.403Z,95484.78
2023-03-14T04:30:59.176Z,95491.41
2023-03-14T04:34:02.123Z,95486.38
2023-03-14T04:37:10.527Z,95487.13
2023-03-14T04:40:18.643Z,95480.75
2023-03-14T04:43:20.951Z,95479.16
2023-03-14T04:46:28.617Z,95480.28
2023-03-14T04:49:30.376Z,95467.72
2023-03-14T04:52:31.977Z,95482.44
2023-03-14T04:55:36.302Z,95461.56
2023-03-14T04:58:37.907Z,95446.63
2023-03-14T05:01:42.120Z,95441.81
2023-03-14T05:05:04.312Z,95447.94
2023-03-14T05:08:38.147Z,95444.00
2023-03-14T05:12:02.532Z,95434.84
2023-03-14T05:15:14.302Z,95421.84
2023-03-14T05:18:36.264Z,95423.38
2023-03-14T05:21:46.600Z,95427.13
2023-03-14T05:25:07.060Z,95419.91
2023-03-14T05:28:22.809Z,95435.13
2023-03-14T05:31:38.860Z,95408.16
2023-03-14T05:34:52.033Z,95418.09
2023-03-14T05:38:11.273Z,95412.47
2023-03-14T05:41:31.211Z,95410.63
2023-03-14T05:44:51.303Z,95415.47
2023-03-14T05:48:09.462Z,95417.88
2023-03-14T05:51:21.464Z,95416.25
2023-03-14T05:54:36.259Z,95412.75
2023-03-14T05:58:03.605Z,95421.84
2023-03-14T06:01:40.389Z,95398.63
2023-03-14T06:04:54.052Z,95436.03
2023-03-14T06:07:55.617Z,95401.53
2023-03-14T06:10:58.729Z,95390.63
2023-03-14T06:14:05.078Z,95395.41
2023-03-14T06:17:06.642Z,95393.81
2023-03-14T06:20:15.565Z,95386.59
2023-03-14T06:23:17.166Z,95392.22
2023-03-14T06:26:18.934Z,95400.50
2023-03-14T06:29:20.546Z,95404.75
2023-03-14T06:32:22.196Z,95403.97
2023-03-14T06:35:27.197Z,95402.09
2023-03-14T06:38:29.050Z,95414.13
2023-03-14T06:41:32.032Z,95392.75
2023-03-14T06:44:35.040Z,95406.13
2023-03-14T06:47:39.134Z,95389.25
2023-03-14T06:50:40.967Z,95397.78
2023-03-14T06:53:43.551Z,95383.00
2023-03-14T06:56:45.314Z,95389.41
2023-03-14T06:59:47.554Z,95389.41
2023-03-14T07:02:49.332Z,95411.38
2023-03-14T07:06:00.695Z,95403.59
2023-03-14T07:09:03.832Z,95398.28
2023-03-14T07:12:06.356Z,95394.56
2023-03-14T07:15:18.264Z,95400.94
2023-03-14T07:18:26.938Z,95417.47
2023-03-14T07:21:28.605Z,95406.59
2023-03-14T07:24:30.433Z,95403.84
2023-03-14T07:27:32.135Z,95402.19
2023-03-14T07:30:34.059Z,95408.53
2023-03-14T07:33:38.380Z,95418.66
2023-03-14T07:36:40.225Z,95408.28
2023-03-14T07:39:41.774Z,95431.75
2023-03-14T07:42:50.462Z,95422.81
2023-03-14T07:46:04.013Z,95428.56
2023-03-14T07:49:05.521Z,95433.56
2023-03-14T07:52:07.046Z,95441.06
2023-03-14T07:55:08.953Z,95444.81
2023-03-14T07:58:10.479Z,95456.22
2023-03-14T08:01:12.003Z,95447.72
2023-03-14T08:04:13.855Z,95468.38
2023-03-14T08:07:15.531Z,95470.44
2023-03-14T08:10:23.455Z,95462.25
2023-03-14T08:13:26.627Z,95475.59
2023-03-14T08:16:28.275Z,95466.97
2023-03-14T08:19:29.860Z,95477.91
2023-03-14T08:22:31.319Z,95488.69
2023-03-14T08:25:33.359Z,95489.22
2023-03-14T08:28:34.917Z,95496.22
2023-03-14T08:31:36.700Z,95519.25
2023-03-14T08:34:38.560Z,95509.31
2023-03-14T08:37:40.735Z,95500.50
2023-03-14T08:40:42.330Z,95513.88
2023-03-14T08:43:43.916Z,95516.56
2023-03-14T08:46:45.519Z,95526.22
2023-03-14T08:49:47.078Z,95518.16
2023-03-14T08:52:48.670Z,95518.44
2023-03-14T08:55:55.206Z,95524.81
2023-03-14T08:58:56.658Z,95516.25
2023-03-14T09:01:58.265Z,95525.13
2023-03-14T09:04:59.732Z,95525.59
2023-03-14T09:08:01.911Z,95530.56
2023-03-14T09:11:03.614Z,95530.94
2023-03-14T09:14:05.051Z,95520.19
2023-03-14T09:17:06.581Z,95526.50
2023-03-14T09:20:09.968Z,95539.00
2023-03-14T09:23:11.778Z,95532.72
2023-03-14T09:26:13.367Z,95528.22
2023-03-14T09:29:14.984Z,95519.31
2023-03-14T09:32:16.513Z,95526.44
2023-03-14T09:35:19.372Z,95518.19
2023-03-14T09:38:21.807Z,95538.44
2023-03-14T09:41:30.693Z,95526.91
2023-03-14T09:44:35.235Z,95528.66
2023-03-14T09:47:41.471Z,95537.31
2023-03-14T09:50:51.965Z,95551.59
2023-03-14T09:53:53.978Z,95541.16
2023-03-14T09:56:55.820Z,95536.06
2023-03-14T10:00:13.084Z,95536.88
2023-03-14T10:03:14.631Z,95540.41
2023-03-14T10:06:16.293Z,95564.16
2023-03-14T10:09:26.366Z,95559.88
2023-03-14T10:12:36.442Z,95565.44
2023-03-14T10:15:39.507Z,95562.09
2023-03-14T10:18:45.665Z,95560.53
2023-03-14T10:21:55.047Z,95575.00
2023-03-14T10:25:05.386Z,95564.91
2023-03-14T10:28:32.767Z,95566.34
2023-03-14T10:31:49.249Z,95565.31
2023-03-14T10:35:15.179Z,95570.25
2023-03-14T10:38:18.509Z,95579.59
2023-03-14T10:41:26.111Z,95583.69
2023-03-14T10:44:27.717Z,95606.13
2023-03-14T10:47:30.198Z,95609.06
2023-03-14T10:50:32.747Z,95619.75
2023-03-14T10:53:41.668Z,95621.94
2023-03-14T10:56:43.178Z,95612.41
2023-03-14T10:59:45.362Z,95616.97
2023-03-14T11:03:05.048Z,95611.00
2023-03-14T11:06:21.856Z,95624.16
2023-03-14T11:09:31.203Z,95623.72
2023-03-14T11:12:39.702Z,95630.56
2023-03-14T11:16:05.553Z,95639.59
2023-03-14T11:19:35.511Z,95656.13
2023-03-14T11:22:59.051Z,95659.44
2023-03-14T11:26:19.548Z,95677.69
2023-03-14T11:29:40.487Z,95673.06
2023-03-14T11:32:46.619Z,95668.97
2023-03-14T11:35:57.873Z,95706.94
2023-03-14T11:39:00.659Z,95703.06
2023-03-14T11:42:04.832Z,95742.66
2023-03-14T11:45:18.197Z,95832.88
2023-03-14T11:48:46.592Z,95846.16
2023-03-14T11:51:51.412Z,95888.97
2023-03-14T11:55:12.057Z,95903.19
2023-03-14T11:58:20.741Z,95916.22
2023-03-14T12:01:30.120Z,95921.34
2023-03-14T12:04:49.519Z,95941.47
2023-03-14T12:08:09.243Z,95944.03
2023-03-14T12:11:22.610Z,95969.94
2023-03-14T12:14:34.257Z,95978.69
2023-03-14T12:17:41.582Z,95990.56
2023-03-14T12:20:54.468Z,96007.06
2023-03-14T12:23:58.340Z,96016.03
2023-03-14T12:27:02.662Z,96030.75
2023-03-14T12:30:17.469Z,96036.06
2023-03-14T12:33:18.992Z,96042.66
2023-03-14T12:36:54.192Z,96051.16
2023-03-14T12:40:31.557Z,96046.84
2023-03-14T12:43:35.655Z,96057.13
2023-03-14T12:46:37.030Z,96084.78
2023-03-14T12:49:39.521Z,96055.59
2023-03-14T12:52:55.898Z,96081.38
2023-03-14T12:56:18.477Z,96048.16
2023-03-14T12:59:42.912Z,96068.34
2023-03-14T13:02:45.958Z,96064.75
2023-03-14T13:05:56.038Z,96086.13
2023-03-14T13:08:58.141Z,96076.88
2023-03-14T13:12:19.174Z,96075.88
2023-03-14T13:15:23.686Z,96091.31
2023-03-14T13:18:38.625Z,96112.09
2023-03-14T13:21:40.239Z,96160.88
2023-03-14T13:24:41.906Z,96137.28
2023-03-14T13:27:43.950Z,96124.91
2023-03-14T13:30:50.632Z,96139.28
2023-03-14T13:34:06.185Z,96129.41
2023-03-14T13:37:17.106Z,96122.56
2023-03-14T13:40:35.632Z,96148.44
2023-03-14T13:43:42.605Z,96135.31
2023-03-14T13:46:44.432Z,96157.72
2023-03-14T13:49:46.827Z,96158.16
2023-03-14T13:52:56.577Z,96179.84
2023-03-14T13:56:02.933Z,96188.09
2023-03-14T13:59:04.397Z,96176.00
2023-03-14T14:02:16.738Z,96174.88
2023-03-14T14:05:19.987Z,96186.47
2023-03-14T14:08:21.516Z,96200.28
2023-03-14T14:11:48.927Z,96193.22
2023-03-14T14:15:23.840Z,96193.84
2023-03-14T14:18:28.526Z,96196.38
2023-03-14T14:21:30.878Z,96211.19
2023-03-14T14:24:33.796Z,96196.38
2023-03-14T14:27:40.219Z,96204.47
2023-03-14T14:30:41.859Z,96217.91
2023-03-14T14:33:44.641Z,96236.09
2023-03-14T14:36:50.342Z,96216.06
2023-03-14T14:39:54.245Z,96223.44
2023-03-14T14:43:03.021Z,96233.06
2023-03-14T14:46:09.066Z,96242.78
2023-03-14T14:49:15.075Z,96232.63
2023-03-14T14:52:22.995Z,96236.28
2023-03-14T14:55:34.350Z,96230.44
2023-03-14T14:58:40.839Z,96225.28
2023-03-14T15:01:43.295Z,96227.47
2023-03-14T15:04:44.919Z,96230.53
2023-03-14T15:07:46.875Z,96225.38
2023-03-14T15:10:48.566Z,96218.75
2023-03-14T15:13:51.163Z,96232.00
2023-03-14T15:16:52.888Z,96222.19
2023-03-14T15:19:54.468Z,96202.69
2023-03-14T15:22:55.898Z,96195.78
2023-03-14T15:25:57.425Z,96190.16
2023-03-14T15:28:58.951Z,96199.16
2023-03-14T15:32:00.512Z,96203.03
2023-03-14T15:35:02.110Z,96197.63
2023-03-14T15:38:04.013Z,96193.63
2023-03-14T15:41:05.637Z,96188.53
2023-03-14T15:44:07.084Z,96183.53
2023-03-14T15:47:11.560Z,96181.69
2023-03-14T15:50:13.180Z,96187.63
2023-03-14T15:53:15.060Z,96192.25
2023-03-14T15:56:19.057Z,96194.38
2023-03-14T15:59:21.899Z,96197.94
2023-03-14T16:02:23.472Z,96202.22
2023-03-14T16:05:24.966Z,96210.53
2023-03-14T16:08:29.807Z,96207.97
2023-03-14T16:11:31.264Z,96219.59
2023-03-14T16:14:32.799Z,96224.59
2023-03-14T16:17:35.058Z,96244.28
2023-03-14T16:20:47.416Z,96233.31
2023-03-14T16:23:49.765Z,96239.22
2023-03-14T16:26:51.298Z,96244.63
2023-03-14T16:29:52.802Z,96240.53
2023-03-14T16:32:54.381Z,96244.06
2023-03-14T16:36:06.178Z,96274.47
2023-03-14T16:39:07.944Z,96279.81
2023-03-14T16:42:09.669Z,96297.13
2023-03-14T16:45:11.440Z,96286.84
2023-03-14T16:48:12.968Z,96301.25
2023-03-14T16:51:16.298Z,96314.69
2023-03-14T16:54:17.863Z,96327.50
2023-03-14T16:57:19.371Z,96324.72
2023-03-14T17:00:22.450Z,96331.56
2023-03-14T17:03:24.813Z,96340.56
2023-03-14T17:06:28.369Z,96356.53
2023-03-14T17:09:31.999Z,96370.31
2023-03-14T17:12:33.473Z,96360.09
2023-03-14T17:15:35.228Z,96371.44
2023-03-14T17:18:37.582Z,96370.59
2023-03-14T17:21:39.093Z,96371.38
2023-03-14T17:24:40.547Z,96382.53
2023-03-14T17:27:43.496Z,96391.25
2023-03-14T17:30:46.724Z,96389.59
2023-03-14T17:33:48.293Z,96398.06
2023-03-14T17:36:49.843Z,96401.38
2023-03-14T17:39:51.332Z,96408.38
2023-03-14T17:42:53.166Z,96407.47
2023-03-14T17:46:02.738Z,96422.91
2023-03-14T17:49:04.213Z,96430.91
2023-03-14T17:52:08.449Z,96428.63
2023-03-14T17:55:10.215Z,96444.13
2023-03-14T17:58:12.815Z,96447.78
2023-03-14T18:01:16.766Z,96447.56
2023-03-14T18:04:18.302Z,96461.44
2023-03-14T18:07:23.550Z,96464.50
2023-03-14T18:10:25.103Z,96472.25
2023-03-14T18:13:26.662Z,96487.19
2023-03-14T18:16:28.525Z,96487.34
2023-03-14T18:19:30.648Z,96475.47
2023-03-14T18:22:33.311Z,96479.59
2023-03-14T18:25:34.908Z,96486.09
2023-03-14T18:28:36.433Z,96485.22
2023-03-14T18:31:37.991Z,96490.94
2023-03-14T18:34:39.694Z,96496.69
2023-03-14T18:37:41.320Z,96495.91
2023-03-14T18:40:42.926Z,96495.31
2023-03-14T18:43:44.685Z,96500.84
2023-03-14T18:46:46.362Z,96500.00
2023-03-14T18:49:47.973Z,96496.75
2023-03-14T18:52:49.485Z,96511.44
2023-03-14T18:55:54.587Z,96507.41
2023-03-14T18:58:56.133Z,96504.94
2023-03-14T19:01:57.713Z,96512.25
2023-03-14T19:04:59.165Z,96514.50
2023-03-14T19:08:02.886Z,96517.56
2023-03-14T19:11:07.282Z,96514.50
2023-03-14T19:14:09.927Z,96521.47
2023-03-14T19:17:11.446Z,96523.66
2023-03-14T19:20:14.584Z,96514.66
2023-03-14T19:23:20.260Z,96515.91
2023-03-14T19:26:24.447Z,96522.03
2023-03-14T19:29:25.913Z,96518.34
2023-03-14T19:32:27.508Z,96519.16
2023-03-14T19:35:29.433Z,96512.22
2023-03-14T19:38:33.960Z,96517.31
2023-03-14T19:41:37.444Z,96513.00
2023-03-14T19:44:39.346Z,96512.16
2023-03-14T19:47:40.952Z,96515.44
2023-03-14T19:50:43.265Z,96524.38
2023-03-14T19:53:44.842Z,96509.97
2023-03-14T19:56:47.089Z,96527.09
2023-03-14T19:59:48.613Z,96528.34
2023-03-14T20:02:51.855Z,96526.09
2023-03-14T20:05:53.932Z,96543.22
2023-03-14T20:08:55.765Z,96538.50
2023-03-14T20:11:57.617Z,96534.84
2023-03-14T20:14:59.333Z,96530.94
2023-03-14T20:18:00.864Z,96538.75
2023-03-14T20:21:06.978Z,96541.34
2023-03-14T20:24:10.342Z,96570.38
2023-03-14T20:27:12.073Z,96564.47
2023-03-14T20:30:17.448Z,96564.88
2023-03-14T20:33:19.914Z,96564.84
2023-03-14T20:36:21.584Z,96585.09
2023-03-14T20:39:24.534Z,96585.44
2023-03-14T20:42:28.970Z,96577.63
2023-03-14T20:45:30.404Z,96584.38
2023-03-14T20:48:32.397Z,96593.13
2023-03-14T20:51:34.016Z,96584.97
2023-03-14T20:54:35.454Z,96586.78
2023-03-14T20:57:36.915Z,96592.50
2023-03-14T21:00:46.177Z,96581.50
2023-03-14T21:03:47.682Z,96594.75
2023-03-14T21:06:49.218Z,96595.38
2023-03-14T21:09:53.611Z,96597.97
2023-03-14T21:12:55.150Z,96591.84
2023-03-14T21:16:00.456Z,96592.81
2023-03-14T21:19:02.156Z,96582.06
2023-03-14T21:22:05.580Z,96597.97
2023-03-14T21:25:07.659Z,96600.66
2023-03-14T21:28:09.180Z,96616.09
2023-03-14T21:31:13.904Z,96647.13
2023-03-14T21:34:15.827Z,96663.63
2023-03-14T21:37:17.730Z,96684.59
2023-03-14T21:40:19.669Z,96685.88
2023-03-14T21:43:21.735Z,96690.53
2023-03-14T21:46:25.808Z,96690.22
2023-03-14T21:49:27.277Z,96691.31
2023-03-14T21:52:28.906Z,96703.53
2023-03-14T21:55:30.448Z,96698.16
2023-03-14T21:58:32.161Z,96709.88
2023-03-14T22:01:33.893Z,96709.09
2023-03-14T22:04:38.409Z,96709.94
2023-03-14T22:07:41.297Z,96705.91
2023-03-14T22:10:47.393Z,96717.19
2023-03-14T22:13:48.995Z,96710.69
2023-03-14T22:16:54.516Z,96718.63
2023-03-14T22:20:47.245Z,96723.25
2023-03-14T22:23:49.967Z,96736.84
2023-03-14T22:26:53.632Z,96739.25
2023-03-14T22:29:55.150Z,96770.13
2023-03-14T22:32:56.941Z,96784.00
2023-03-14T22:35:58.545Z,96773.13
2023-03-14T22:39:00.225Z,96784.47
2023-03-14T22:42:02.203Z,96791.44
2023-03-14T22:45:03.963Z,96796.88
2023-03-14T22:48:05.590Z,96815.16
2023-03-14T22:51:08.607Z,96810.88
2023-03-14T22:54:10.123Z,96811.81
2023-03-14T22:57:11.726Z,96812.31
2023-03-14T23:00:14.017Z,96830.16
2023-03-14T23:03:15.614Z,96837.06
2023-03-14T23:06:17.643Z,96837.13
2023-03-14T23:09:19.413Z,96847.34
2023-03-14T23:12:21.653Z,96855.50
2023-03-14T23:15:24.216Z,96866.38
2023-03-14T23:18:27.511Z,96876.97
2023-03-14T23:21:29.114Z,96877.06
2023-03-14T23:24:30.625Z,96875.25
2023-03-14T23:27:32.152Z,96884.75
2023-03-14T23:30:33.643Z,96878.59
2023-03-14T23:33:36.718Z,96883.78
2023-03-14T23:36:38.489Z,96895.72
2023-03-14T23:39:41.359Z,96894.53
2023-03-14T23:42:42.885Z,96904.16
2023-03-14T23:45:48.904Z,96910.47
2023-03-14T23:48:51.221Z,96908.31
2023-03-14T23:51:52.696Z,96909.22
2023-03-14T23:54:54.406Z,96907.84
2023-03-14T23:57:55.869Z,96915.38
